Time;durP1;ratioP1;P1;durP2;ratioP2;P2;SDS_P1;SDS_P2;PMS_P1;PMS_P2;Temp;Humidity;BMP_temperature;BMP_pressure;BME280_temperature;BME280_humidity;BME280_pressure;Samples;Min_cycle;Max_cycle;Signal;HPM_P1;HPM_P2
2022/03/17 00:00:33;;;;;;;6.07;5.20;;;18.50;42.80;;;;;;5126791;27;46884;-14
2022/03/17 00:03:00;;;;;;;7.05;5.72;;;18.50;42.80;;;;;;5126613;27;46929;-14
2022/03/17 00:05:26;;;;;;;6.05;5.50;;;18.50;42.80;;;;;;5126685;27;47039;-14
2022/03/17 00:07:53;;;;;;;6.82;5.68;;;18.40;42.70;;;;;;5126704;27;47033;-15
2022/03/17 00:10:20;;;;;;;6.32;5.72;;;18.40;42.70;;;;;;5126432;27;48482;-15
2022/03/17 00:12:48;;;;;;;6.00;5.40;;;18.40;42.80;;;;;;5126774;27;47055;-15
2022/03/17 00:15:16;;;;;;;5.68;5.07;;;18.40;42.70;;;;;;5126580;27;46825;-15
2022/03/17 00:17:43;;;;;;;6.68;5.05;;;18.40;42.70;;;;;;5126782;27;46825;-14
2022/03/17 00:20:11;;;;;;;5.72;5.15;;;18.40;42.70;;;;;;5126577;27;48882;-15
2022/03/17 00:22:37;;;;;;;7.20;5.43;;;18.40;42.70;;;;;;5126481;27;47024;-14
2022/03/17 00:25:05;;;;;;;7.07;5.85;;;18.40;42.70;;;;;;5126695;27;47003;-15
2022/03/17 00:27:32;;;;;;;5.93;5.35;;;18.40;42.70;;;;;;5126642;27;47280;-14
2022/03/17 00:29:59;;;;;;;5.93;5.32;;;18.30;42.70;;;;;;5129743;27;47964;-15
2022/03/17 00:32:27;;;;;;;6.32;5.10;;;18.30;42.70;;;;;;5129966;27;46924;-14
2022/03/17 00:37:38;;;;;;;6.05;5.45;;;18.30;42.70;;;;;;5129436;27;46972;-15
2022/03/17 00:40:06;;;;;;;6.15;5.55;;;18.30;42.70;;;;;;5130056;27;46858;-15
2022/03/17 00:42:32;;;;;;;6.95;5.80;;;18.30;42.70;;;;;;5129888;27;47418;-14
2022/03/17 00:44:59;;;;;;;5.72;5.13;;;18.30;42.70;;;;;;5129759;27;46998;-15
2022/03/17 00:47:27;;;;;;;6.20;5.60;;;18.30;42.70;;;;;;5129798;27;46922;-15
2022/03/17 00:49:54;;;;;;;5.30;4.80;;;18.30;42.70;;;;;;5129660;27;47861;-14
2022/03/17 00:52:21;;;;;;;6.28;5.57;;;18.20;42.70;;;;;;5129362;27;46950;-15
2022/03/17 00:54:47;;;;;;;6.40;5.15;;;18.20;42.70;;;;;;5129643;27;46824;-15
2022/03/17 00:57:14;;;;;;;6.68;5.88;;;18.20;42.70;;;;;;5129539;27;47217;-15
2022/03/17 00:59:41;;;;;;;6.07;5.47;;;18.20;42.70;;;;;;5129808;27;46864;-14
2022/03/17 01:02:08;;;;;;;5.85;5.22;;;18.20;42.70;;;;;;5129519;27;46970;-15
2022/03/17 01:04:36;;;;;;;5.95;5.35;;;18.20;42.70;;;;;;5129374;27;46846;-14
2022/03/17 01:07:03;;;;;;;5.90;5.30;;;18.20;42.70;;;;;;5129725;27;47299;-14
2022/03/17 01:09:30;;;;;;;7.70;5.60;;;18.20;42.70;;;;;;5129479;27;48185;-15
2022/03/17 01:11:57;;;;;;;6.00;5.40;;;18.10;42.60;;;;;;5129382;27;46894;-15
2022/03/17 01:14:24;;;;;;;6.47;5.78;;;18.10;42.60;;;;;;5129416;27;47032;-15
2022/03/17 01:16:51;;;;;;;6.30;5.70;;;18.10;42.60;;;;;;5129320;27;46966;-14
2022/03/17 01:19:19;;;;;;;6.72;5.30;;;18.10;42.60;;;;;;5129234;27;48079;-15
2022/03/17 01:21:47;;;;;;;6.00;5.32;;;18.10;42.60;;;;;;5128918;27;47175;-14
2022/03/17 01:24:13;;;;;;;6.47;5.40;;;18.10;42.60;;;;;;5129016;27;46987;-14
2022/03/17 01:26:40;;;;;;;7.00;5.30;;;18.10;42.70;;;;;;5129242;27;46935;-14
2022/03/17 01:29:07;;;;;;;5.50;4.90;;;18.10;42.70;;;;;;5129128;27;48858;-14
2022/03/17 01:31:34;;;;;;;6.30;5.32;;;18.10;42.70;;;;;;5128889;27;46986;-15
2022/03/17 01:34:00;;;;;;;6.55;5.82;;;18.00;42.60;;;;;;5128986;27;46879;-16
2022/03/17 01:36:27;;;;;;;6.55;5.65;;;18.00;42.60;;;;;;5128970;27;47276;-14
2022/03/17 01:38:56;;;;;;;5.72;5.13;;;18.00;42.60;;;;;;5129121;27;49214;-15
2022/03/17 01:41:23;;;;;;;6.03;5.43;;;18.00;42.60;;;;;;5127469;27;47564;-15
2022/03/17 01:43:50;;;;;;;6.18;5.57;;;18.00;42.60;;;;;;5128983;27;46862;-14
2022/03/17 01:46:18;;;;;;;6.40;4.95;;;18.00;42.60;;;;;;5128715;27;46886;-15
2022/03/17 01:48:45;;;;;;;6.13;4.90;;;18.00;42.70;;;;;;5128926;27;48047;-15
2022/03/17 01:51:11;;;;;;;4.90;4.47;;;18.00;42.60;;;;;;5128601;27;47407;-15
2022/03/17 01:53:38;;;;;;;6.15;5.50;;;18.00;42.70;;;;;;5128659;27;46880;-14
2022/03/17 01:56:06;;;;;;;5.82;5.25;;;17.90;42.60;;;;;;5128734;27;47074;-15
2022/03/17 01:58:33;;;;;;;5.95;4.95;;;17.90;42.60;;;;;;5128432;27;47104;-14
2022/03/17 02:01:00;;;;;;;5.65;5.03;;;17.90;42.70;;;;;;5128712;27;47087;-15
2022/03/17 02:03:27;;;;;;;5.47;4.90;;;17.90;42.60;;;;;;5128479;27;46883;-14
2022/03/17 02:05:53;;;;;;;6.75;5.45;;;17.90;42.60;;;;;;5128603;27;47358;-15
2022/03/17 02:08:20;;;;;;;6.65;5.50;;;17.90;42.60;;;;;;5128608;27;47870;-15
2022/03/17 02:13:33;;;;;;;5.25;4.72;;;17.90;42.60;;;;;;5125857;27;46965;-14
2022/03/17 02:16:03;;;;;;;5.88;5.22;;;17.90;42.60;;;;;;5128547;27;46909;-15
2022/03/17 02:18:31;;;;;;;5.22;4.43;;;17.80;42.60;;;;;;5128165;27;48158;-15
2022/03/17 02:20:59;;;;;;;5.88;5.38;;;17.90;42.60;;;;;;5128423;27;47442;-14
2022/03/17 02:26:11;;;;;;;5.25;4.60;;;17.90;42.50;;;;;;5125642;27;46987;-16
2022/03/17 02:28:38;;;;;;;6.20;4.95;;;17.90;42.50;;;;;;5128331;27;49253;-15
2022/03/17 02:31:06;;;;;;;5.70;4.80;;;17.90;42.50;;;;;;5128388;27;47530;-14
2022/03/17 02:33:35;;;;;;;5.45;4.95;;;17.80;42.50;;;;;;5128524;27;46812;-15
2022/03/17 02:36:01;;;;;;;5.20;4.70;;;17.80;42.40;;;;;;5127986;27;47026;-14
2022/03/17 02:38:29;;;;;;;6.07;5.18;;;17.80;42.40;;;;;;5128262;27;49035;-14
2022/03/17 02:40:56;;;;;;;5.20;4.70;;;17.80;42.40;;;;;;5127960;27;46897;-14
2022/03/17 02:43:23;;;;;;;6.40;4.80;;;17.80;42.40;;;;;;5127940;27;46969;-14
2022/03/17 02:45:49;;;;;;;4.90;4.38;;;17.80;42.40;;;;;;5128277;27;46911;-14
2022/03/17 02:48:17;;;;;;;4.90;4.40;;;17.80;42.40;;;;;;5127646;27;48093;-15
2022/03/17 02:50:45;;;;;;;5.20;4.70;;;17.80;42.40;;;;;;5127546;27;46910;-15
2022/03/17 02:53:12;;;;;;;5.18;4.68;;;17.80;42.40;;;;;;5127611;27;46835;-15
2022/03/17 02:55:41;;;;;;;6.40;4.93;;;17.90;42.40;;;;;;5127805;27;46885;-14
2022/03/17 02:58:08;;;;;;;5.43;4.60;;;18.00;42.10;;;;;;5127794;27;48036;-15
2022/03/17 03:00:35;;;;;;;4.97;4.47;;;18.20;42.20;;;;;;5127714;27;46910;-15
2022/03/17 03:03:02;;;;;;;5.20;4.70;;;18.40;42.10;;;;;;5127739;27;46803;-15
2022/03/17 03:05:28;;;;;;;5.60;5.03;;;18.60;41.80;;;;;;5127873;27;46860;-15
2022/03/17 03:07:55;;;;;;;4.95;4.45;;;18.70;41.60;;;;;;5127080;27;46966;-15
2022/03/17 03:10:22;;;;;;;5.10;4.60;;;18.90;41.30;;;;;;5126841;27;47009;-15
2022/03/17 03:12:50;;;;;;;5.53;4.50;;;19.10;41.10;;;;;;5127287;27;47099;-14
2022/03/17 03:15:17;;;;;;;5.07;4.60;;;19.20;40.90;;;;;;5127719;27;46882;-14
2022/03/17 03:17:43;;;;;;;5.95;4.97;;;19.30;40.60;;;;;;5126849;27;49017;-15
2022/03/17 03:20:11;;;;;;;5.03;4.53;;;19.40;40.50;;;;;;5127405;27;47424;-15
2022/03/17 03:22:39;;;;;;;5.95;5.10;;;19.50;40.40;;;;;;5127410;27;46801;-15
2022/03/17 03:25:06;;;;;;;4.95;4.45;;;19.60;40.20;;;;;;5127212;27;47088;-15
2022/03/17 03:27:34;;;;;;;5.38;4.65;;;19.60;40.10;;;;;;5127074;27;48834;-15
2022/03/17 03:30:02;;;;;;;5.78;4.47;;;19.60;40.00;;;;;;5127047;27;47039;-15
2022/03/17 03:32:28;;;;;;;4.75;4.32;;;19.70;40.00;;;;;;5127243;27;46927;-15
2022/03/17 03:34:55;;;;;;;5.60;4.45;;;19.70;39.90;;;;;;5127630;27;47243;-16
2022/03/17 03:37:24;;;;;;;5.60;4.65;;;19.70;39.80;;;;;;5126906;27;49101;-15
2022/03/17 03:39:52;;;;;;;4.75;4.20;;;19.70;39.70;;;;;;5127212;27;46986;-14
2022/03/17 03:42:19;;;;;;;4.93;4.40;;;19.80;39.80;;;;;;5126769;27;47014;-15
2022/03/17 03:44:45;;;;;;;6.20;5.07;;;19.80;39.70;;;;;;5127207;27;46896;-14
2022/03/17 03:47:14;;;;;;;4.97;4.47;;;19.80;39.70;;;;;;5126972;27;47935;-15
2022/03/17 03:49:41;;;;;;;5.07;4.55;;;19.80;39.70;;;;;;5126754;27;47082;-14
2022/03/17 03:52:08;;;;;;;5.38;4.55;;;19.80;39.80;;;;;;5126969;27;46936;-14
2022/03/17 03:54:35;;;;;;;4.93;4.35;;;19.80;39.70;;;;;;5126905;27;46905;-16
2022/03/17 03:57:01;;;;;;;4.90;4.38;;;19.70;39.60;;;;;;5126831;27;48240;-15
2022/03/17 03:59:29;;;;;;;5.53;4.53;;;19.70;40.30;;;;;;5126589;27;46786;-14
2022/03/17 04:01:57;;;;;;;5.25;4.65;;;19.70;39.70;;;;;;5126642;27;46928;-14
2022/03/17 04:04:25;;;;;;;5.28;4.50;;;19.70;39.70;;;;;;5126377;27;47327;-15
2022/03/17 04:06:53;;;;;;;5.43;4.60;;;19.70;39.80;;;;;;5126710;27;47071;-15
2022/03/17 04:09:20;;;;;;;5.00;4.47;;;19.70;39.70;;;;;;5126679;27;47483;-15
2022/03/17 04:11:47;;;;;;;5.75;4.63;;;19.70;39.80;;;;;;5126726;27;47086;-15
2022/03/17 04:14:14;;;;;;;5.05;4.55;;;19.60;39.70;;;;;;5126884;27;46892;-15
2022/03/17 04:16:41;;;;;;;5.35;4.47;;;19.60;39.80;;;;;;5126465;27;48113;-15
2022/03/17 04:19:09;;;;;;;5.43;4.80;;;19.60;39.90;;;;;;5126513;27;46816;-15
2022/03/17 04:21:37;;;;;;;4.65;4.22;;;19.50;39.80;;;;;;5126142;27;46867;-15
2022/03/17 04:24:04;;;;;;;5.70;4.80;;;19.60;39.90;;;;;;5126606;27;47267;-15
2022/03/17 04:26:31;;;;;;;4.60;4.20;;;19.50;39.90;;;;;;5126294;27;49068;-15
2022/03/17 04:28:58;;;;;;;5.43;4.35;;;19.50;40.00;;;;;;5126172;27;46992;-15
2022/03/17 04:31:24;;;;;;;5.57;4.40;;;19.50;40.10;;;;;;5126061;27;46791;-14
2022/03/17 04:33:51;;;;;;;4.60;4.20;;;19.40;40.10;;;;;;5126337;27;46900;-15
2022/03/17 04:36:18;;;;;;;5.28;4.78;;;19.40;40.20;;;;;;5126313;27;48079;-14
2022/03/17 04:38:46;;;;;;;4.80;4.25;;;19.40;40.20;;;;;;5126135;27;46834;-15
2022/03/17 04:41:13;;;;;;;5.00;4.50;;;19.30;40.20;;;;;;5126301;27;46928;-15
2022/03/17 04:43:40;;;;;;;5.57;4.47;;;19.30;40.30;;;;;;5126548;27;46850;-15
2022/03/17 04:46:07;;;;;;;5.50;5.00;;;19.30;40.40;;;;;;5126213;27;48136;-15
2022/03/17 04:48:34;;;;;;;5.57;4.60;;;19.30;40.40;;;;;;5126264;27;46983;-15
2022/03/17 04:51:00;;;;;;;5.13;4.60;;;19.20;40.40;;;;;;5126157;27;46895;-15
2022/03/17 04:53:33;;;;;;;4.95;4.45;;;19.20;40.50;;;;;;5126410;27;47027;-16
2022/03/17 04:56:02;;;;;;;4.68;4.22;;;19.20;40.50;;;;;;5126278;27;47066;-15
2022/03/17 04:58:29;;;;;;;4.50;4.03;;;19.10;40.60;;;;;;5140513;27;46913;-15
2022/03/17 05:00:56;;;;;;;4.38;4.00;;;19.10;40.60;;;;;;5146870;27;46898;-14
2022/03/17 05:03:23;;;;;;;4.47;4.07;;;19.10;40.70;;;;;;5147010;27;47165;-14
2022/03/17 05:05:50;;;;;;;5.25;4.57;;;19.10;40.70;;;;;;5146394;27;47912;-14
2022/03/17 05:08:16;;;;;;;5.40;4.38;;;19.00;41.30;;;;;;5145608;27;46873;-15
2022/03/17 05:10:44;;;;;;;5.63;4.80;;;19.00;40.70;;;;;;5145792;27;46973;-15
2022/03/17 05:13:13;;;;;;;5.47;4.72;;;19.00;40.70;;;;;;5146402;27;46841;-15
2022/03/17 05:15:39;;;;;;;5.18;4.68;;;19.00;40.80;;;;;;5149083;27;48087;-15
2022/03/17 05:18:06;;;;;;;5.38;4.47;;;18.90;40.80;;;;;;5150176;27;46954;-15
2022/03/17 05:20:33;;;;;;;4.68;4.18;;;18.90;40.80;;;;;;5150338;27;46908;-15
2022/03/17 05:23:00;;;;;;;4.82;4.40;;;18.90;40.90;;;;;;5150353;27;46923;-14
2022/03/17 05:25:27;;;;;;;4.20;3.80;;;18.80;40.90;;;;;;5149788;27;48903;-14
2022/03/17 05:27:53;;;;;;;4.40;4.00;;;18.80;41.00;;;;;;5149609;27;46886;-14
2022/03/17 05:30:21;;;;;;;5.30;4.80;;;18.80;41.00;;;;;;5150222;27;47056;-14
2022/03/17 05:32:48;;;;;;;4.55;4.10;;;18.80;41.00;;;;;;5150107;27;47283;-15
2022/03/17 05:35:16;;;;;;;5.20;4.40;;;18.80;41.00;;;;;;5149902;27;46957;-15
2022/03/17 05:37:42;;;;;;;4.63;4.20;;;18.70;41.00;;;;;;5149843;27;47007;-15
2022/03/17 05:40:13;;;;;;;4.82;4.15;;;18.70;41.00;;;;;;5150089;27;46894;-15
2022/03/17 05:42:40;;;;;;;4.88;4.10;;;18.70;41.00;;;;;;5150054;27;46784;-15
2022/03/17 05:45:08;;;;;;;4.35;3.95;;;18.70;41.10;;;;;;5149789;27;47897;-15
2022/03/17 05:47:37;;;;;;;4.60;4.20;;;18.60;41.10;;;;;;5149193;27;47274;-14
2022/03/17 05:50:05;;;;;;;4.50;4.10;;;18.60;41.10;;;;;;5150039;27;47170;-14
2022/03/17 05:52:32;;;;;;;4.40;4.00;;;18.60;41.10;;;;;;5149940;27;47049;-15
2022/03/17 05:54:58;;;;;;;4.05;3.60;;;18.60;41.10;;;;;;5149568;27;47067;-14
2022/03/17 05:57:25;;;;;;;4.35;3.95;;;18.60;41.10;;;;;;5149084;27;47075;-15
2022/03/17 05:59:52;;;;;;;4.13;3.83;;;18.60;41.20;;;;;;5149472;27;46811;-14
2022/03/17 06:02:18;;;;;;;5.45;4.25;;;18.50;41.20;;;;;;5149579;27;46836;-14
2022/03/17 06:04:46;;;;;;;4.22;3.83;;;18.50;41.10;;;;;;5149113;27;47068;-15
2022/03/17 06:07:13;;;;;;;4.15;3.80;;;18.50;41.20;;;;;;5149206;27;47501;-15
2022/03/17 06:09:40;;;;;;;4.50;4.10;;;18.50;41.20;;;;;;5148976;27;46833;-14
2022/03/17 06:12:08;;;;;;;3.78;3.42;;;18.50;41.20;;;;;;5149954;27;47010;-15
2022/03/17 06:14:35;;;;;;;4.15;3.75;;;18.40;41.20;;;;;;5149158;27;48119;-15
2022/03/17 06:17:02;;;;;;;4.35;3.95;;;18.40;41.20;;;;;;5149221;27;47294;-15
2022/03/17 06:19:28;;;;;;;4.03;3.55;;;18.40;41.20;;;;;;5149380;27;46815;-15
2022/03/17 06:21:58;;;;;;;4.78;3.75;;;18.40;41.20;;;;;;5149443;27;47504;-15
2022/03/17 06:24:25;;;;;;;3.97;3.67;;;18.40;41.20;;;;;;5149060;27;47883;-14
2022/03/17 06:26:52;;;;;;;4.75;3.95;;;18.40;41.20;;;;;;5148347;27;46972;-15
2022/03/17 06:29:18;;;;;;;4.10;3.70;;;18.40;41.30;;;;;;5148991;27;46874;-15
2022/03/17 06:31:45;;;;;;;4.05;3.65;;;18.40;41.20;;;;;;5148812;27;47205;-15
2022/03/17 06:34:14;;;;;;;3.97;3.58;;;18.30;41.20;;;;;;5149359;27;49044;-15
2022/03/17 06:36:40;;;;;;;3.95;3.55;;;18.30;40.90;;;;;;5148488;27;46844;-15
2022/03/17 06:39:09;;;;;;;4.70;4.00;;;18.30;41.30;;;;;;5149205;27;46964;-15
2022/03/17 06:41:35;;;;;;;4.35;3.90;;;18.30;41.30;;;;;;5149212;27;47172;-15
2022/03/17 06:44:02;;;;;;;4.13;3.67;;;18.30;41.30;;;;;;5149052;27;47897;-15
2022/03/17 06:46:30;;;;;;;3.60;3.30;;;18.30;41.30;;;;;;5148397;27;46916;-15
2022/03/17 06:48:57;;;;;;;3.92;3.58;;;18.30;41.30;;;;;;5148655;27;46803;-15
2022/03/17 06:51:28;;;;;;;4.03;3.63;;;18.30;41.20;;;;;;5148688;27;46910;-15
2022/03/17 06:53:55;;;;;;;4.57;3.80;;;18.30;41.00;;;;;;5148835;27;47953;-15
2022/03/17 06:56:23;;;;;;;3.92;3.50;;;18.30;41.30;;;;;;5148442;27;47155;-16
2022/03/17 06:58:50;;;;;;;4.78;4.20;;;18.20;41.30;;;;;;5148349;27;46909;-16
2022/03/17 07:01:17;;;;;;;4.43;3.90;;;18.20;41.30;;;;;;5148945;27;47216;-15
2022/03/17 07:03:43;;;;;;;4.38;3.97;;;18.20;41.30;;;;;;5147560;27;48096;-15
2022/03/17 07:06:10;;;;;;;4.00;3.60;;;18.20;41.30;;;;;;5148332;27;46988;-15
2022/03/17 07:08:38;;;;;;;4.10;3.70;;;18.20;41.30;;;;;;5148449;27;46867;-16
2022/03/17 07:11:05;;;;;;;3.78;3.42;;;18.20;41.10;;;;;;5147974;27;46960;-15
2022/03/17 07:13:33;;;;;;;3.97;3.50;;;18.20;42.00;;;;;;5148143;27;48857;-15
2022/03/17 07:16:00;;;;;;;3.85;3.45;;;18.20;41.40;;;;;;5148463;27;46742;-15
2022/03/17 07:18:27;;;;;;;5.25;3.78;;;18.20;41.20;;;;;;5148196;27;46985;-15
2022/03/17 07:20:57;;;;;;;3.92;3.53;;;18.10;41.40;;;;;;5148187;27;47310;-16
2022/03/17 07:23:24;;;;;;;5.50;3.90;;;18.20;41.40;;;;;;5147914;27;48943;-15
2022/03/17 07:25:53;;;;;;;4.15;3.75;;;18.10;41.40;;;;;;5148296;27;46872;-15
2022/03/17 07:28:20;;;;;;;3.67;3.38;;;18.10;41.30;;;;;;5147943;27;46862;-15
2022/03/17 07:30:49;;;;;;;4.90;3.92;;;18.10;41.30;;;;;;5148443;27;46883;-15
2022/03/17 07:33:15;;;;;;;3.95;3.28;;;18.10;41.40;;;;;;5147827;27;46920;-15
2022/03/17 07:35:42;;;;;;;3.95;3.40;;;18.10;41.30;;;;;;5148164;27;47142;-15
2022/03/17 07:38:09;;;;;;;4.57;3.63;;;18.10;41.40;;;;;;5146161;27;47012;-15
2022/03/17 07:40:36;;;;;;;4.85;3.40;;;18.10;41.30;;;;;;5148013;27;47281;-16
2022/03/17 07:43:03;;;;;;;3.65;3.35;;;18.10;41.40;;;;;;5146973;27;47914;-15
2022/03/17 07:45:29;;;;;;;3.83;3.42;;;18.10;41.40;;;;;;5147006;27;47045;-16
2022/03/17 07:47:57;;;;;;;4.00;3.45;;;18.10;41.30;;;;;;5147013;27;46988;-15
2022/03/17 07:50:24;;;;;;;3.95;3.55;;;18.10;41.40;;;;;;5147592;27;47126;-15
2022/03/17 07:52:51;;;;;;;3.45;3.15;;;18.10;41.40;;;;;;5146589;27;47779;-15
2022/03/17 07:55:18;;;;;;;3.58;3.28;;;18.10;41.40;;;;;;5147237;27;47362;-19
2022/03/17 07:57:46;;;;;;;4.20;3.80;;;18.10;41.40;;;;;;5147168;27;46807;-19
2022/03/17 08:00:14;;;;;;;3.50;3.15;;;18.10;41.40;;;;;;5147743;27;46989;-20
2022/03/17 08:02:41;;;;;;;4.55;3.42;;;18.10;41.40;;;;;;5146557;27;48235;-20
2022/03/17 08:05:10;;;;;;;4.80;3.47;;;18.10;41.40;;;;;;5147449;27;47606;-20
2022/03/17 08:07:36;;;;;;;3.80;3.50;;;18.10;41.50;;;;;;5147550;27;46907;-20
2022/03/17 08:10:03;;;;;;;4.00;3.60;;;18.10;41.50;;;;;;5147957;27;47296;-20
2022/03/17 08:12:31;;;;;;;3.65;3.30;;;18.10;41.50;;;;;;5147087;27;48932;-20
2022/03/17 08:14:58;;;;;;;3.35;3.05;;;18.10;41.50;;;;;;5146398;27;47380;-20
2022/03/17 08:17:25;;;;;;;4.25;3.38;;;18.10;41.50;;;;;;5146852;27;46884;-20
2022/03/17 08:19:53;;;;;;;3.42;3.10;;;18.10;41.50;;;;;;5147435;27;47294;-20
2022/03/17 08:22:21;;;;;;;3.95;3.63;;;18.10;41.50;;;;;;5146347;27;46958;-21
2022/03/17 08:24:57;;;;;;;4.03;3.55;;;18.10;41.40;;;;;;5147443;27;46856;-20
2022/03/17 08:27:24;;;;;;;3.88;3.47;;;18.10;41.50;;;;;;5146369;27;46991;-20
2022/03/17 08:29:51;;;;;;;3.45;3.15;;;18.10;41.40;;;;;;5162779;27;47119;-20
2022/03/17 08:32:18;;;;;;;4.30;3.63;;;18.10;41.50;;;;;;5132873;27;47015;-20
2022/03/17 08:34:44;;;;;;;3.30;2.95;;;18.10;41.50;;;;;;5126091;27;46872;-19
2022/03/17 08:37:11;;;;;;;3.97;3.45;;;18.10;41.50;;;;;;5126069;27;46991;-20
2022/03/17 08:39:39;;;;;;;5.28;3.40;;;18.10;41.50;;;;;;5127097;27;46942;-19
2022/03/17 08:42:06;;;;;;;3.47;3.17;;;18.10;41.50;;;;;;5125831;27;46856;-20
2022/03/17 08:44:33;;;;;;;3.95;3.47;;;18.10;41.40;;;;;;5126518;27;47021;-19
2022/03/17 08:49:44;;;;;;;3.63;3.28;;;18.10;41.50;;;;;;5125118;27;46996;-19
2022/03/17 08:52:11;;;;;;;3.50;3.20;;;18.10;41.50;;;;;;5129557;27;46874;-19
2022/03/17 08:54:39;;;;;;;3.33;3.03;;;18.10;41.50;;;;;;5129668;27;47399;-19
2022/03/17 08:57:06;;;;;;;4.97;3.10;;;18.10;41.50;;;;;;5128206;27;46928;-20
2022/03/17 08:59:34;;;;;;;3.78;3.25;;;18.10;41.50;;;;;;5129498;27;46885;-19
2022/03/17 09:02:02;;;;;;;3.40;3.10;;;18.10;41.40;;;;;;5147316;27;47771;-20
2022/03/17 09:04:28;;;;;;;4.35;3.30;;;18.10;41.40;;;;;;5150086;27;47017;-20
2022/03/17 09:06:58;;;;;;;3.80;3.40;;;18.10;41.40;;;;;;5150498;27;46982;-21
2022/03/17 09:09:25;;;;;;;3.50;3.20;;;18.10;41.50;;;;;;5150521;27;47216;-20
2022/03/17 09:11:53;;;;;;;3.60;3.10;;;18.10;41.50;;;;;;5150535;27;48173;-21
2022/03/17 09:14:21;;;;;;;3.33;3.03;;;18.10;41.50;;;;;;5150580;27;47460;-20
2022/03/17 09:16:47;;;;;;;3.15;2.85;;;18.10;41.40;;;;;;5149371;27;47023;-19
2022/03/17 09:19:14;;;;;;;3.40;3.10;;;18.20;41.50;;;;;;5149050;27;47103;-19
2022/03/17 09:21:41;;;;;;;3.30;3.00;;;18.20;41.30;;;;;;5148749;27;47104;-19
2022/03/17 09:24:08;;;;;;;4.80;3.10;;;18.20;41.40;;;;;;5148970;27;47023;-20
2022/03/17 09:26:35;;;;;;;3.05;2.83;;;18.20;41.40;;;;;;5148769;27;46934;-19
2022/03/17 09:29:04;;;;;;;3.55;2.90;;;18.20;41.30;;;;;;5149613;27;46928;-20
2022/03/17 09:31:31;;;;;;;3.38;3.08;;;18.20;41.40;;;;;;5149198;27;48281;-20
2022/03/17 09:33:58;;;;;;;3.28;2.97;;;18.20;41.30;;;;;;5144581;27;47400;-20
2022/03/17 09:36:24;;;;;;;3.40;3.10;;;18.20;41.30;;;;;;5149760;27;46926;-20
2022/03/17 09:41:33;;;;;;;3.17;2.90;;;18.30;41.30;;;;;;5155581;27;47729;-21
2022/03/17 09:44:00;;;;;;;3.17;2.88;;;18.30;41.30;;;;;;5143443;27;46817;-21
2022/03/17 09:46:28;;;;;;;3.08;2.75;;;18.30;41.20;;;;;;5147616;27;47017;-20
2022/03/17 09:48:55;;;;;;;2.63;2.42;;;18.30;41.20;;;;;;5151556;27;46990;-20
2022/03/17 09:51:24;;;;;;;3.20;2.88;;;18.30;41.20;;;;;;5160341;27;48911;-20
2022/03/17 09:53:53;;;;;;;3.28;2.97;;;18.30;41.10;;;;;;5150349;27;46911;-20
2022/03/17 09:56:19;;;;;;;3.45;3.10;;;18.40;41.20;;;;;;5156736;27;46966;-19
2022/03/17 09:58:47;;;;;;;3.70;3.10;;;18.40;41.30;;;;;;5135884;27;47171;-20
2022/03/17 10:01:15;;;;;;;5.80;3.30;;;18.40;41.40;;;;;;5159686;27;48119;-19
2022/03/17 10:03:43;;;;;;;4.45;3.83;;;18.40;41.60;;;;;;5149438;27;47362;-19
2022/03/17 10:06:10;;;;;;;4.68;3.45;;;18.40;41.70;;;;;;5145730;27;47088;-19
2022/03/17 10:08:38;;;;;;;3.40;3.10;;;18.40;41.70;;;;;;5166410;27;47131;-19
2022/03/17 10:11:06;;;;;;;4.38;3.22;;;18.40;41.70;;;;;;5135329;27;48110;-20
2022/03/17 10:13:39;;;;;;;5.00;3.40;;;18.40;41.60;;;;;;5155423;27;47266;-19
2022/03/17 10:16:08;;;;;;;4.25;3.67;;;18.50;41.60;;;;;;5152719;27;46873;-20
2022/03/17 10:18:37;;;;;;;3.67;3.20;;;18.50;41.60;;;;;;5137649;27;47022;-20
2022/03/17 10:21:11;;;;;;;3.92;3.53;;;18.50;41.60;;;;;;5146503;27;48129;-19
2022/03/17 10:23:45;;;;;;;3.88;3.25;;;18.50;41.70;;;;;;5148200;27;47421;-19
2022/03/17 10:26:12;;;;;;;4.55;3.42;;;18.50;41.70;;;;;;5139021;27;46882;-20
2022/03/17 10:28:40;;;;;;;5.03;3.22;;;18.60;41.70;;;;;;5162408;27;46983;-19
2022/03/17 10:31:08;;;;;;;5.28;3.83;;;18.60;41.60;;;;;;5136031;27;46910;-19
2022/03/17 10:33:34;;;;;;;4.00;3.58;;;18.60;41.60;;;;;;5146421;27;47187;-19
2022/03/17 10:36:20;;;;;;;4.50;3.33;;;18.60;41.60;;;;;;5143033;27;46918;-20
2022/03/17 10:38:49;;;;;;;4.18;3.67;;;18.60;41.50;;;;;;5146169;27;46927;-20
2022/03/17 10:41:15;;;;;;;4.07;3.65;;;18.70;41.60;;;;;;5156090;27;49001;-20
2022/03/17 10:43:43;;;;;;;5.55;4.35;;;18.70;41.60;;;;;;5157430;27;47226;-20
2022/03/17 10:46:11;;;;;;;4.07;3.63;;;18.70;41.80;;;;;;5144701;27;47056;-19
2022/03/17 10:48:52;;;;;;;7.15;4.18;;;18.80;41.90;;;;;;5162161;27;46903;-20
2022/03/17 10:51:33;;;;;;;6.00;5.38;;;18.80;41.90;;;;;;5133206;27;49151;-20
2022/03/17 10:54:06;;;;;;;5.18;4.38;;;18.80;42.20;;;;;;5154598;27;48153;-20
2022/03/17 10:56:34;;;;;;;8.70;4.43;;;18.80;41.80;;;;;;5143093;27;47156;-17
2022/03/17 10:59:02;;;;;;;8.07;4.60;;;18.90;41.80;;;;;;5162195;27;47130;-15
2022/03/17 11:01:39;;;;;;;6.25;4.82;;;18.90;41.70;;;;;;5141274;27;48161;-15
2022/03/17 11:04:06;;;;;;;6.07;4.70;;;18.90;42.90;;;;;;5145136;27;46993;-15
2022/03/17 11:06:34;;;;;;;6.07;5.10;;;18.90;42.50;;;;;;5147904;27;46965;-16
2022/03/17 11:09:01;;;;;;;7.03;5.47;;;18.90;42.10;;;;;;5136161;27;46886;-16
2022/03/17 11:11:28;;;;;;;5.55;4.90;;;19.00;42.60;;;;;;5152319;27;48103;-15
2022/03/17 11:13:56;;;;;;;8.10;4.97;;;19.00;42.10;;;;;;5151474;27;46915;-15
2022/03/17 11:16:23;;;;;;;5.57;4.80;;;19.00;42.20;;;;;;5136687;27;46889;-15
2022/03/17 11:18:50;;;;;;;10.77;7.82;;;19.00;42.10;;;;;;5162126;27;46813;-15
2022/03/17 11:21:19;;;;;;;10.70;6.20;;;19.00;43.30;;;;;;5140512;27;48251;-15
2022/03/17 11:23:55;;;;;;;9.40;6.03;;;19.00;42.70;;;;;;5148810;27;46931;-15
2022/03/17 11:26:25;;;;;;;8.23;6.75;;;19.00;43.30;;;;;;5145106;27;47115;-16
2022/03/17 11:28:52;;;;;;;10.80;7.05;;;19.00;43.10;;;;;;5147622;27;47029;-15
2022/03/17 11:31:20;;;;;;;9.13;6.65;;;19.00;43.10;;;;;;5145060;27;48076;-15
2022/03/17 11:33:48;;;;;;;9.75;6.97;;;19.00;43.10;;;;;;5147891;27;47000;-15
2022/03/17 11:36:21;;;;;;;9.45;7.22;;;19.10;43.20;;;;;;5147070;27;46831;-15
2022/03/17 11:39:06;;;;;;;11.15;7.32;;;19.10;43.20;;;;;;5144873;27;47011;-15
2022/03/17 11:41:34;;;;;;;10.82;7.43;;;19.10;43.20;;;;;;5145095;27;46967;-16
2022/03/17 11:44:04;;;;;;;9.90;6.97;;;19.10;43.70;;;;;;5146014;27;46906;-15
2022/03/17 11:46:42;;;;;;;9.27;7.55;;;19.10;42.70;;;;;;5144782;27;47043;-15
2022/03/17 11:49:23;;;;;;;10.98;7.78;;;19.10;43.10;;;;;;5137676;27;47003;-15
2022/03/17 11:51:54;;;;;;;15.23;8.70;;;19.10;43.50;;;;;;5143137;27;49018;-20
2022/03/17 11:54:22;;;;;;;21.58;14.52;;;19.10;43.60;;;;;;5132038;27;46868;-19
2022/03/17 11:56:56;;;;;;;28.27;15.88;;;19.10;46.90;;;;;;5146480;27;47076;-20
2022/03/17 11:59:23;;;;;;;25.73;16.80;;;19.00;47.70;;;;;;5147864;27;47013;-19
2022/03/17 12:01:50;;;;;;;26.83;15.38;;;18.90;48.10;;;;;;5145514;27;49249;-20
2022/03/17 12:04:22;;;;;;;27.75;16.85;;;18.90;48.00;;;;;;5140648;27;46954;-19
2022/03/17 12:06:52;;;;;;;32.22;18.08;;;18.80;48.60;;;;;;5125124;27;47150;-20
2022/03/17 12:09:31;;;;;;;23.95;17.35;;;18.80;48.80;;;;;;5125433;27;46979;-19
2022/03/17 12:11:58;;;;;;;24.85;16.58;;;18.80;48.80;;;;;;5146214;27;49286;-20
2022/03/17 12:14:25;;;;;;;25.17;17.10;;;18.80;49.00;;;;;;5139161;27;47046;-20
2022/03/17 12:16:55;;;;;;;22.52;17.27;;;18.80;49.10;;;;;;5125776;27;46931;-20
2022/03/17 12:19:40;;;;;;;26.33;16.95;;;18.70;49.40;;;;;;5125865;27;47091;-20
2022/03/17 12:22:17;;;;;;;26.13;16.73;;;18.70;49.50;;;;;;5126168;27;48684;-20
2022/03/17 12:24:47;;;;;;;24.75;17.38;;;18.60;49.40;;;;;;5125483;27;46884;-19
2022/03/17 12:27:26;;;;;;;21.10;16.48;;;18.60;49.40;;;;;;5126487;27;47143;-19
2022/03/17 12:29:57;;;;;;;30.58;17.20;;;18.70;49.60;;;;;;5126735;27;47269;-19
2022/03/17 12:32:24;;;;;;;32.92;17.10;;;18.60;49.40;;;;;;5126009;27;48093;-20
2022/03/17 12:34:52;;;;;;;37.58;16.73;;;18.70;49.40;;;;;;5137911;27;46841;-20
2022/03/17 12:37:20;;;;;;;28.23;16.30;;;18.70;49.40;;;;;;5144689;27;46833;-20
2022/03/17 12:39:50;;;;;;;27.95;15.48;;;18.80;49.40;;;;;;5135958;27;46915;-21
2022/03/17 12:42:19;;;;;;;27.42;15.98;;;18.80;49.10;;;;;;5125767;27;48265;-20
2022/03/17 12:44:50;;;;;;;31.65;16.30;;;18.90;49.20;;;;;;5125757;27;46946;-20
2022/03/17 12:47:17;;;;;;;25.52;16.50;;;19.00;48.90;;;;;;5126024;27;46821;-20
2022/03/17 12:49:44;;;;;;;24.10;17.20;;;18.90;49.00;;;;;;5125973;27;46942;-21
2022/03/17 12:52:14;;;;;;;25.52;17.65;;;18.90;49.00;;;;;;5125522;27;47177;-20
2022/03/17 12:54:41;;;;;;;22.13;16.88;;;18.90;49.20;;;;;;5125534;27;47572;-21
2022/03/17 12:57:09;;;;;;;26.45;18.13;;;18.80;49.30;;;;;;5125972;27;46968;-20
2022/03/17 12:59:36;;;;;;;23.33;17.42;;;18.80;49.30;;;;;;5129253;27;47172;-21
2022/03/17 13:02:03;;;;;;;25.33;18.48;;;18.80;49.40;;;;;;5137781;27;46877;-16